Time;durP1;ratioP1;P1;durP2;ratioP2;P2;SDS_P1;SDS_P2;PMS_P1;PMS_P2;Temp;Humidity;BMP_temperature;BMP_pressure;BME280_temperature;BME280_humidity;BME280_pressure;Samples;Min_cycle;Max_cycle;Signal;HPM_P1;HPM_P2
2023/07/30 00:00:11;;;;;;;35.40;21.15;;;;;;;-146.25;100.00;52254.66;2091306;28;36541;-72
2023/07/30 00:01:12;;;;;;;38.35;23.02;;;;;;;-146.25;100.00;52218.16;2088837;28;34128;-72
2023/07/30 00:02:14;;;;;;;41.30;22.60;;;;;;;-146.25;100.00;52246.53;2088963;28;30684;-72
2023/07/30 00:03:16;;;;;;;39.30;22.17;;;;;;;-146.25;100.00;52246.53;2088570;28;35116;-74
2023/07/30 00:04:18;;;;;;;37.92;22.98;;;;;;;-146.25;100.00;52226.25;2088041;28;37437;-72
2023/07/30 00:05:20;;;;;;;37.83;22.55;;;;;;;-146.25;100.00;52258.72;2088813;28;20046;-73
2023/07/30 00:06:21;;;;;;;34.17;20.35;;;;;;;-146.25;100.00;52283.03;2088593;28;35970;-73
2023/07/30 00:07:23;;;;;;;33.65;20.73;;;;;;;-146.25;100.00;52224.25;2088943;28;33883;-72
2023/07/30 00:08:25;;;;;;;39.08;22.15;;;;;;;-146.25;100.00;52226.25;2088568;28;34213;-72
2023/07/30 00:09:27;;;;;;;34.45;21.92;;;;;;;-146.25;100.00;52266.81;2088787;28;35078;-73
2023/07/30 00:10:28;;;;;;;37.20;21.65;;;;;;;-146.25;100.00;52274.94;2089606;28;20044;-72
2023/07/30 00:11:30;;;;;;;40.22;21.08;;;;;;;-146.25;100.00;52262.75;2088019;28;37397;-72
2023/07/30 00:12:37;;;;;;;38.35;21.58;;;;;;;-146.25;100.00;52256.69;2079790;28;33952;-72
2023/07/30 00:13:38;;;;;;;36.42;21.33;;;;;;;-146.25;100.00;52238.44;2080458;28;35743;-73
2023/07/30 00:14:40;;;;;;;36.15;21.83;;;;;;;-146.25;100.00;52240.47;2088525;28;33540;-73
2023/07/30 00:15:42;;;;;;;38.13;21.63;;;;;;;-146.25;100.00;52242.50;2088612;28;36544;-73
2023/07/30 00:16:47;;;;;;;42.28;22.45;;;;;;;-146.25;100.00;52258.72;2089456;28;20047;-73
2023/07/30 00:17:48;;;;;;;37.65;22.52;;;;;;;-146.25;100.00;52252.63;2088726;28;35672;-73
2023/07/30 00:18:50;;;;;;;40.35;21.77;;;;;;;-146.25;100.00;52252.63;2088870;28;36974;-73
2023/07/30 00:19:52;;;;;;;36.53;21.58;;;;;;;-146.25;100.00;52228.28;2089551;28;20041;-73
2023/07/30 00:20:54;;;;;;;41.00;21.10;;;;;;;-146.25;100.00;52278.97;2088573;28;37453;-73
2023/07/30 00:21:56;;;;;;;34.92;21.83;;;;;;;-146.25;100.00;52222.22;2088454;28;33828;-73
2023/07/30 00:22:57;;;;;;;35.05;20.13;;;;;;;-146.25;100.00;52260.72;2088878;28;29889;-73
2023/07/30 00:23:59;;;;;;;30.58;19.67;;;;;;;-146.25;100.00;52252.63;2088441;28;38232;-74
2023/07/30 00:25:01;;;;;;;36.20;21.42;;;;;;;-146.25;100.00;52222.22;2088288;28;20057;-72
2023/07/30 00:26:05;;;;;;;34.63;20.83;;;;;;;-146.25;100.00;52248.56;2087523;28;36077;-74
2023/07/30 00:27:07;;;;;;;36.95;20.15;;;;;;;-146.25;100.00;52248.56;2088078;28;36984;-73
2023/07/30 00:28:11;;;;;;;31.98;19.17;;;;;;;-146.25;100.00;52266.81;2088670;28;30585;-73
2023/07/30 00:29:13;;;;;;;35.45;20.23;;;;;;;-146.25;100.00;52226.25;2087549;28;27103;-74
2023/07/30 00:30:15;;;;;;;33.78;20.10;;;;;;;-146.25;100.00;52252.63;2088895;28;20042;-74
2023/07/30 00:31:16;;;;;;;33.90;19.05;;;;;;;-146.25;100.00;52244.50;2089153;28;20056;-74
2023/07/30 00:32:20;;;;;;;33.13;19.60;;;;;;;-146.25;100.00;52236.41;2088511;28;37326;-74
2023/07/30 00:33:24;;;;;;;32.65;20.13;;;;;;;-146.25;100.00;52268.84;2089576;28;20894;-73
2023/07/30 00:34:29;;;;;;;35.22;20.30;;;;;;;-146.25;100.00;52240.47;2089341;28;20038;-74
2023/07/30 00:35:31;;;;;;;37.40;19.02;;;;;;;-146.25;100.00;52234.38;2088024;28;33148;-74
2023/07/30 00:36:33;;;;;;;35.88;19.70;;;;;;;-146.25;100.00;52276.97;2088795;28;24098;-74
2023/07/30 00:37:34;;;;;;;35.28;20.52;;;;;;;-146.25;100.00;52248.56;2088737;28;28836;-73
2023/07/30 00:38:36;;;;;;;36.47;20.20;;;;;;;-146.25;100.00;52303.31;2089227;28;20172;-73
2023/07/30 00:39:40;;;;;;;35.70;20.20;;;;;;;-146.25;100.00;52250.59;2088772;28;28591;-74
2023/07/30 00:40:45;;;;;;;34.05;20.33;;;;;;;-146.25;100.00;52248.56;2087989;28;32288;-74
2023/07/30 00:41:47;;;;;;;35.20;19.35;;;;;;;-146.25;100.00;52250.59;2080576;28;20906;-74
2023/07/30 00:42:49;;;;;;;28.52;18.02;;;;;;;-146.25;100.00;52252.63;2088324;28;24214;-74
2023/07/30 00:43:50;;;;;;;36.20;19.05;;;;;;;-146.25;100.00;52260.72;2087801;28;24825;-74
2023/07/30 00:44:52;;;;;;;35.00;18.33;;;;;;;-146.25;100.00;52250.59;2088357;28;27046;-73
2023/07/30 00:45:55;;;;;;;32.78;18.30;;;;;;;-146.25;100.00;52270.88;2096051;28;36595;-74
2023/07/30 00:46:56;;;;;;;33.92;17.95;;;;;;;-146.25;100.00;52242.50;2096305;28;29155;-74
2023/07/30 00:48:00;;;;;;;37.08;19.58;;;;;;;-146.25;100.00;52248.56;2089410;28;20053;-74
2023/07/30 00:49:04;;;;;;;29.48;18.42;;;;;;;-146.25;100.00;52244.50;2088721;28;20850;-73
2023/07/30 00:50:07;;;;;;;34.45;17.45;;;;;;;-146.25;100.00;52242.50;2088145;28;28084;-73
2023/07/30 00:51:13;;;;;;;32.95;18.65;;;;;;;-146.25;100.00;52254.66;2088735;28;25330;-73
2023/07/30 00:52:23;;;;;;;30.85;18.23;;;;;;;-146.25;100.00;52240.47;2087743;28;31339;-74
2023/07/30 00:53:27;;;;;;;32.72;18.23;;;;;;;-146.25;100.00;52224.25;2088934;28;26262;-74
2023/07/30 00:54:31;;;;;;;35.38;18.77;;;;;;;-146.25;100.00;52276.97;2081063;28;25074;-73
2023/07/30 00:55:34;;;;;;;30.75;17.00;;;;;;;-146.25;100.00;52248.56;2088551;28;24289;-74
2023/07/30 00:56:40;;;;;;;30.67;18.02;;;;;;;-146.25;100.00;52260.72;2088152;28;20044;-73
2023/07/30 00:57:42;;;;;;;35.92;19.08;;;;;;;-146.25;100.00;52252.63;2088779;28;20095;-74
2023/07/30 00:58:48;;;;;;;29.17;17.95;;;;;;;-146.25;100.00;52278.97;2088178;28;20049;-74
2023/07/30 00:59:50;;;;;;;32.42;18.52;;;;;;;-146.25;100.00;52244.50;2089470;28;20041;-74
2023/07/30 01:00:54;;;;;;;27.58;15.90;;;;;;;-146.25;100.00;52270.88;2088070;28;30728;-73
2023/07/30 01:01:57;;;;;;;24.38;15.52;;;;;;;-146.25;100.00;52262.75;2080506;28;25024;-73
2023/07/30 01:02:59;;;;;;;29.83;17.67;;;;;;;-146.25;100.00;52230.31;2079982;28;20918;-73
2023/07/30 01:04:01;;;;;;;29.98;17.45;;;;;;;-146.25;100.00;52268.84;2080640;28;21418;-74
2023/07/30 01:05:04;;;;;;;28.25;16.95;;;;;;;-146.25;100.00;52240.47;2087975;28;28288;-74
2023/07/30 01:06:06;;;;;;;31.23;17.27;;;;;;;-146.25;100.00;52258.72;2080226;28;25822;-74
2023/07/30 01:07:09;;;;;;;29.80;18.05;;;;;;;-146.25;100.00;52276.97;2087858;28;32345;-74
2023/07/30 01:08:11;;;;;;;27.55;15.95;;;;;;;-146.25;100.00;52262.75;2080124;28;20089;-73
2023/07/30 01:09:16;;;;;;;34.13;17.90;;;;;;;-146.25;100.00;52256.69;2080105;28;27270;-73
2023/07/30 01:10:19;;;;;;;32.97;18.00;;;;;;;-146.25;100.00;52260.72;2087994;28;20922;-74
2023/07/30 01:11:21;;;;;;;31.58;17.30;;;;;;;-146.25;100.00;52268.84;2088468;28;24844;-73
2023/07/30 01:12:23;;;;;;;28.15;16.95;;;;;;;-146.25;100.00;52264.78;2088621;28;20115;-74
2023/07/30 01:13:28;;;;;;;33.88;18.50;;;;;;;-146.25;100.00;52240.47;2079905;28;21010;-73
2023/07/30 01:14:31;;;;;;;29.42;18.02;;;;;;;-146.25;100.00;52246.53;2088172;28;20045;-74
2023/07/30 01:15:33;;;;;;;41.45;18.35;;;;;;;-146.25;100.00;52254.66;2080484;28;26783;-73
2023/07/30 01:16:36;;;;;;;31.50;18.20;;;;;;;-146.25;100.00;52250.59;2088867;28;20218;-74
2023/07/30 01:17:37;;;;;;;31.60;18.25;;;;;;;-146.25;100.00;52254.66;2088597;28;26368;-74
2023/07/30 01:18:42;;;;;;;32.03;18.10;;;;;;;-146.25;100.00;52281.00;2088799;28;20883;-74
2023/07/30 01:19:44;;;;;;;30.38;17.42;;;;;;;-146.25;100.00;52260.72;2088208;28;20159;-73
2023/07/30 01:20:45;;;;;;;28.35;16.67;;;;;;;-146.25;100.00;52287.09;2088177;28;25368;-74
2023/07/30 01:21:47;;;;;;;27.90;16.00;;;;;;;-146.25;100.00;52232.34;2088576;28;28381;-74
2023/07/30 01:22:49;;;;;;;30.05;16.05;;;;;;;-146.25;100.00;52250.59;2088513;28;30660;-74
2023/07/30 01:23:51;;;;;;;28.48;17.80;;;;;;;-146.25;100.00;52303.31;2087688;28;22877;-74
2023/07/30 01:24:53;;;;;;;29.00;16.52;;;;;;;-146.25;100.00;52307.38;2088271;28;27770;-74
2023/07/30 01:26:10;;;;;;;25.40;16.58;;;;;;;-146.25;100.00;52264.78;2087382;28;34065;-74
2023/07/30 01:27:26;;;;;;;29.15;16.83;;;;;;;-146.25;100.00;52236.41;2088646;28;20518;-74
2023/07/30 01:28:37;;;;;;;33.83;17.23;;;;;;;-146.25;100.00;52262.75;2085073;28;23532;-74
2023/07/30 01:30:39;;;;;;;28.98;17.05;;;;;;;-146.25;100.00;52262.75;2088033;28;20449;-73
2023/07/30 01:31:43;;;;;;;30.45;15.65;;;;;;;-146.25;100.00;52274.94;2062425;28;29693;-73
2023/07/30 01:32:49;;;;;;;26.30;13.70;;;;;;;-146.25;100.00;52266.81;2062257;28;35425;-74
2023/07/30 01:33:55;;;;;;;28.48;15.20;;;;;;;-146.25;100.00;52264.78;2082464;28;20176;-74
2023/07/30 01:34:59;;;;;;;27.10;15.55;;;;;;;-146.25;100.00;52278.97;2087589;28;30530;-74
2023/07/30 01:36:04;;;;;;;29.45;16.23;;;;;;;-146.25;100.00;52262.75;2080753;28;20053;-74
2023/07/30 01:37:10;;;;;;;25.05;14.82;;;;;;;-146.25;100.00;52285.06;2088059;28;20083;-74
2023/07/30 01:38:14;;;;;;;25.15;15.23;;;;;;;-146.25;100.00;52234.38;2088111;28;27717;-74
2023/07/30 01:39:17;;;;;;;26.65;15.93;;;;;;;-146.25;100.00;52297.22;2080171;28;31954;-74
2023/07/30 01:40:22;;;;;;;27.00;15.48;;;;;;;-146.25;100.00;52230.31;2087970;28;27735;-74
2023/07/30 01:41:24;;;;;;;31.33;16.52;;;;;;;-146.25;100.00;52266.81;2088082;28;20884;-73
2023/07/30 01:42:30;;;;;;;29.05;15.95;;;;;;;-146.25;100.00;52252.63;2087881;28;25937;-74
2023/07/30 01:43:32;;;;;;;25.00;14.52;;;;;;;-146.25;100.00;52248.56;2095977;28;20040;-73
2023/07/30 01:44:34;;;;;;;27.83;15.77;;;;;;;-146.25;100.00;52299.25;2096540;28;20884;-73
2023/07/30 01:45:39;;;;;;;25.33;14.50;;;;;;;-146.25;100.00;52266.81;2088776;28;23879;-73
2023/07/30 01:46:41;;;;;;;26.08;15.52;;;;;;;-146.25;100.00;52291.16;2088816;28;20041;-73
2023/07/30 01:47:43;;;;;;;32.63;17.52;;;;;;;-146.25;100.00;52272.91;2088274;28;20575;-73
2023/07/30 01:48:45;;;;;;;32.33;16.95;;;;;;;-146.25;100.00;52258.72;2079771;28;20026;-74
2023/07/30 01:49:47;;;;;;;30.92;16.33;;;;;;;-146.25;100.00;52248.56;2087707;28;31233;-73
2023/07/30 01:50:51;;;;;;;29.60;16.98;;;;;;;-146.25;100.00;52258.72;2088623;28;23626;-73
2023/07/30 01:51:53;;;;;;;26.60;15.95;;;;;;;-146.25;100.00;52305.34;2087550;28;31257;-74
2023/07/30 01:52:57;;;;;;;30.33;17.88;;;;;;;-146.25;100.00;52283.03;2088316;28;20046;-74
2023/07/30 01:53:59;;;;;;;32.25;16.80;;;;;;;-146.25;100.00;52258.72;2088214;28;30239;-74
2023/07/30 01:55:01;;;;;;;32.03;17.27;;;;;;;-146.25;100.00;52272.91;2087862;28;20082;-74
2023/07/30 01:56:03;;;;;;;36.35;16.90;;;;;;;-146.25;100.00;52295.19;2087962;28;20025;-73
2023/07/30 01:57:05;;;;;;;31.50;17.42;;;;;;;-146.25;100.00;52226.25;2079377;28;22854;-74
2023/07/30 01:58:06;;;;;;;30.45;15.88;;;;;;;-146.25;100.00;52264.78;2071725;28;20898;-74
2023/07/30 01:59:08;;;;;;;39.13;17.02;;;;;;;-146.25;100.00;52254.66;2079617;28;20038;-73
2023/07/30 02:00:11;;;;;;;29.73;16.27;;;;;;;-146.25;100.00;52252.63;2071449;28;20049;-73
2023/07/30 02:01:15;;;;;;;30.67;15.70;;;;;;;-146.25;100.00;52313.44;2079814;28;20049;-73
2023/07/30 02:02:17;;;;;;;32.55;16.50;;;;;;;-146.25;100.00;52250.59;2087159;28;28085;-74
2023/07/30 02:03:22;;;;;;;31.17;16.80;;;;;;;-146.25;100.00;52262.75;2088570;28;20052;-74
2023/07/30 02:04:24;;;;;;;30.27;16.73;;;;;;;-146.25;100.00;52260.72;2088897;28;20098;-74
2023/07/30 02:05:25;;;;;;;31.70;16.65;;;;;;;-146.25;100.00;52293.19;2088569;28;20152;-74
2023/07/30 02:06:27;;;;;;;30.85;16.75;;;;;;;-146.25;100.00;52315.47;2087602;28;32092;-74
2023/07/30 02:07:29;;;;;;;31.48;16.00;;;;;;;-146.25;100.00;52258.72;2079635;28;28287;-75
2023/07/30 02:08:31;;;;;;;36.25;17.48;;;;;;;-146.25;100.00;52291.16;2079706;28;20250;-74
2023/07/30 02:09:33;;;;;;;34.60;17.63;;;;;;;-146.25;100.00;52274.94;2087623;28;31008;-74
2023/07/30 02:10:37;;;;;;;37.67;17.65;;;;;;;-146.25;100.00;52242.50;2087775;28;20178;-74
2023/07/30 02:11:40;;;;;;;29.70;16.95;;;;;;;-146.25;100.00;52321.56;2087977;28;20046;-74
2023/07/30 02:12:42;;;;;;;32.15;16.67;;;;;;;-146.25;100.00;52283.03;2087836;28;20061;-74
2023/07/30 02:13:43;;;;;;;32.75;17.85;;;;;;;-146.25;100.00;52272.91;2079836;28;20114;-74
2023/07/30 02:14:47;;;;;;;39.70;17.92;;;;;;;-146.25;100.00;52258.72;2071651;28;20899;-74
2023/07/30 02:15:49;;;;;;;34.17;17.92;;;;;;;-146.25;100.00;52268.84;2071862;28;27638;-74
2023/07/30 02:16:53;;;;;;;27.65;16.73;;;;;;;-146.25;100.00;52226.25;2080130;28;33016;-74
2023/07/30 02:17:54;;;;;;;31.55;16.98;;;;;;;-146.25;100.00;52276.97;2087703;28;29008;-73
2023/07/30 02:18:56;;;;;;;38.25;17.85;;;;;;;-146.25;100.00;52272.91;2078999;28;25088;-74
2023/07/30 02:19:58;;;;;;;35.28;18.63;;;;;;;-146.25;100.00;52291.16;2079923;28;20092;-74
2023/07/30 02:21:03;;;;;;;39.35;18.45;;;;;;;-146.25;100.00;52291.16;2079972;28;20951;-74
2023/07/30 02:22:04;;;;;;;31.60;18.13;;;;;;;-146.25;100.00;52323.59;2079699;28;32987;-74
2023/07/30 02:23:08;;;;;;;38.67;19.42;;;;;;;-146.25;100.00;52274.94;2079828;28;20073;-75
2023/07/30 02:24:13;;;;;;;36.45;19.75;;;;;;;-146.25;100.00;52252.63;2079457;28;27836;-73
2023/07/30 02:25:16;;;;;;;39.72;20.42;;;;;;;-146.25;100.00;52287.09;2087799;28;20041;-74
2023/07/30 02:26:19;;;;;;;34.10;18.80;;;;;;;-146.25;100.00;52266.81;2088525;28;20909;-75
2023/07/30 02:27:21;;;;;;;38.95;19.88;;;;;;;-146.25;100.00;52281.00;2087949;28;25658;-74
2023/07/30 02:28:25;;;;;;;42.10;20.85;;;;;;;-146.25;100.00;52268.84;2087502;28;20049;-74
2023/07/30 02:29:28;;;;;;;39.53;20.58;;;;;;;-146.25;100.00;52289.13;2088244;28;20172;-75
2023/07/30 02:30:29;;;;;;;41.70;19.25;;;;;;;-146.25;100.00;52236.41;2087617;28;30221;-74
2023/07/30 02:31:32;;;;;;;37.85;20.10;;;;;;;-146.25;100.00;52254.66;2087444;28;26841;-74
2023/07/30 02:32:33;;;;;;;42.60;20.33;;;;;;;-146.25;100.00;52234.38;2088173;28;29285;-74
2023/07/30 02:33:38;;;;;;;37.78;19.75;;;;;;;-146.25;100.00;52281.00;2088002;28;20045;-74
2023/07/30 02:34:39;;;;;;;42.50;20.25;;;;;;;-146.25;100.00;52287.09;2087492;28;33548;-74
2023/07/30 02:35:43;;;;;;;42.55;21.73;;;;;;;-146.25;100.00;52291.16;2087245;28;27977;-74
2023/07/30 02:36:48;;;;;;;44.58;20.83;;;;;;;-146.25;100.00;52276.97;2079499;28;25390;-74
2023/07/30 02:37:50;;;;;;;41.45;20.30;;;;;;;-146.25;100.00;52301.28;2087881;28;20110;-74
2023/07/30 02:38:52;;;;;;;45.35;22.45;;;;;;;-146.25;100.00;52287.09;2087999;28;20135;-74
2023/07/30 02:39:54;;;;;;;38.15;20.27;;;;;;;-146.25;100.00;52262.75;2087964;28;20048;-74
2023/07/30 02:40:56;;;;;;;44.47;21.02;;;;;;;-146.25;100.00;52281.00;2079119;28;20042;-74
2023/07/30 02:41:58;;;;;;;44.30;21.67;;;;;;;-146.25;100.00;52281.00;2071537;28;20040;-74
2023/07/30 02:43:00;;;;;;;40.95;21.20;;;;;;;-146.25;100.00;52311.44;2079097;28;22652;-75
2023/07/30 02:44:02;;;;;;;44.75;21.50;;;;;;;-146.25;100.00;52264.78;2086606;28;20961;-74
2023/07/30 02:45:05;;;;;;;41.13;20.42;;;;;;;-146.25;100.00;52289.13;2095609;28;20045;-74
2023/07/30 02:46:07;;;;;;;41.80;22.13;;;;;;;-146.25;100.00;52258.72;2087976;28;23774;-74
2023/07/30 02:47:09;;;;;;;45.28;21.88;;;;;;;-146.25;100.00;52295.19;2087789;28;31655;-75
2023/07/30 02:48:13;;;;;;;49.22;22.42;;;;;;;-146.25;100.00;52276.97;2087580;28;20114;-74
2023/07/30 02:49:15;;;;;;;49.55;23.13;;;;;;;-146.25;100.00;52295.19;2087688;28;25187;-74
2023/07/30 02:50:19;;;;;;;49.50;21.30;;;;;;;-146.25;100.00;52301.28;2087749;28;20282;-74
2023/07/30 02:51:22;;;;;;;42.15;20.60;;;;;;;-146.25;100.00;52303.31;2086955;28;28546;-74
2023/07/30 02:52:23;;;;;;;48.15;21.20;;;;;;;-146.25;100.00;52266.81;2088055;28;20168;-74
2023/07/30 02:53:30;;;;;;;46.40;21.15;;;;;;;-146.25;100.00;52276.97;2079487;28;20168;-74
2023/07/30 02:54:32;;;;;;;44.58;21.25;;;;;;;-146.25;100.00;52289.13;2088024;28;20079;-75
2023/07/30 02:55:34;;;;;;;48.97;22.55;;;;;;;-146.25;100.00;52272.91;2087618;28;23837;-74
2023/07/30 02:56:35;;;;;;;47.92;21.92;;;;;;;-146.25;100.00;52309.41;2087721;28;20048;-75
2023/07/30 02:57:37;;;;;;;43.08;21.17;;;;;;;-146.25;100.00;52272.91;2086765;28;24323;-74
2023/07/30 02:58:39;;;;;;;47.60;21.40;;;;;;;-146.25;100.00;52295.19;2086619;28;33367;-74
2023/07/30 02:59:43;;;;;;;44.45;20.13;;;;;;;-146.25;100.00;52272.91;2087623;28;20042;-74
2023/07/30 03:00:47;;;;;;;44.03;20.60;;;;;;;-146.25;100.00;52266.81;2088029;28;20148;-74
2023/07/30 03:01:48;;;;;;;43.83;20.67;;;;;;;-146.25;100.00;52329.66;2095835;28;20049;-75
2023/07/30 03:02:50;;;;;;;47.40;22.02;;;;;;;-146.25;100.00;52285.06;2087438;28;20076;-74
2023/07/30 03:03:53;;;;;;;51.22;21.10;;;;;;;-146.25;100.00;52262.75;2079608;28;20068;-75
2023/07/30 03:04:55;;;;;;;48.53;20.50;;;;;;;-146.25;100.00;52264.78;2079257;28;20049;-74
2023/07/30 03:06:03;;;;;;;40.40;19.83;;;;;;;-146.25;100.00;52266.81;2087454;28;31983;-74
2023/07/30 03:07:05;;;;;;;50.17;21.08;;;;;;;-146.25;100.00;52250.59;2095178;28;29380;-74
2023/07/30 03:08:07;;;;;;;47.65;19.30;;;;;;;-146.25;100.00;52285.06;2087293;28;25893;-74
2023/07/30 03:09:08;;;;;;;47.15;19.67;;;;;;;-146.25;100.00;52230.31;2079701;28;20826;-74
2023/07/30 03:10:10;;;;;;;37.30;18.90;;;;;;;-146.25;100.00;52287.09;2087883;28;20997;-74
2023/07/30 03:11:13;;;;;;;46.67;19.55;;;;;;;-146.25;100.00;52246.53;2087197;28;20033;-73
2023/07/30 03:12:20;;;;;;;40.10;18.30;;;;;;;-146.25;100.00;52295.19;2087905;28;30068;-74
2023/07/30 03:13:22;;;;;;;47.55;19.30;;;;;;;-146.25;100.00;52317.50;2087289;28;27696;-73
2023/07/30 03:14:26;;;;;;;39.53;18.92;;;;;;;-146.25;100.00;52321.56;2088307;28;29612;-75
2023/07/30 03:15:28;;;;;;;51.13;20.00;;;;;;;-146.25;100.00;52270.88;2088127;28;22420;-74
2023/07/30 03:16:30;;;;;;;42.08;18.17;;;;;;;-146.25;100.00;52309.41;2087536;28;20208;-74
2023/07/30 03:17:32;;;;;;;44.70;18.05;;;;;;;-146.25;100.00;52274.94;2087275;28;25156;-74
2023/07/30 03:18:36;;;;;;;38.40;16.80;;;;;;;-146.25;100.00;52274.94;2087660;28;22980;-74
2023/07/30 03:19:38;;;;;;;41.97;18.10;;;;;;;-146.25;100.00;52266.81;2087417;28;20033;-75
2023/07/30 03:20:41;;;;;;;45.50;18.73;;;;;;;-146.25;100.00;52278.97;2087504;28;37931;-74
2023/07/30 03:21:43;;;;;;;43.60;18.40;;;;;;;-146.25;100.00;52295.19;2087732;28;20160;-75
2023/07/30 03:22:45;;;;;;;39.10;17.25;;;;;;;-146.25;100.00;52307.38;2087148;28;28562;-74
2023/07/30 03:23:48;;;;;;;41.80;15.90;;;;;;;-146.25;100.00;52272.91;2088240;28;20807;-74
2023/07/30 03:24:50;;;;;;;40.25;15.93;;;;;;;-146.25;100.00;52313.44;2087397;28;20092;-74
2023/07/30 03:25:54;;;;;;;36.63;16.52;;;;;;;-146.25;100.00;52274.94;2078632;28;25564;-74
2023/07/30 03:26:56;;;;;;;43.10;17.38;;;;;;;-146.25;100.00;52299.25;2087757;28;20038;-74
2023/07/30 03:27:57;;;;;;;44.78;17.17;;;;;;;-146.25;100.00;52301.28;2086349;28;36723;-74
2023/07/30 03:28:59;;;;;;;39.65;16.30;;;;;;;-146.25;100.00;52289.13;2069847;28;35066;-74
2023/07/30 03:30:01;;;;;;;41.28;16.13;;;;;;;-146.25;100.00;52274.94;2070958;28;26236;-74
2023/07/30 03:31:03;;;;;;;38.95;16.73;;;;;;;-146.25;100.00;52266.81;2087122;28;20917;-74
2023/07/30 03:32:05;;;;;;;38.50;15.27;;;;;;;-146.25;100.00;52315.47;2087733;28;20041;-74
2023/07/30 03:33:07;;;;;;;40.72;16.48;;;;;;;-146.25;100.00;52274.94;2078634;28;27944;-74
2023/07/30 03:34:11;;;;;;;36.65;16.23;;;;;;;-146.25;100.00;52331.69;2087465;28;20045;-74
2023/07/30 03:35:14;;;;;;;40.25;16.10;;;;;;;-146.25;100.00;52268.84;2087463;28;20096;-74
2023/07/30 03:36:16;;;;;;;37.78;14.73;;;;;;;-146.25;100.00;52291.16;2087052;28;31221;-74
2023/07/30 03:37:19;;;;;;;41.00;14.73;;;;;;;-146.25;100.00;52299.25;2079250;28;27816;-74
2023/07/30 03:38:21;;;;;;;32.33;14.95;;;;;;;-146.25;100.00;52274.94;2079074;28;29794;-74
2023/07/30 03:39:25;;;;;;;40.42;14.57;;;;;;;-146.25;100.00;52299.25;2087698;28;34969;-74
2023/07/30 03:40:29;;;;;;;37.33;14.43;;;;;;;-146.25;100.00;52285.06;2079103;28;20045;-74
2023/07/30 03:41:30;;;;;;;38.55;15.07;;;;;;;-146.25;100.00;52315.47;2079170;28;30490;-74
2023/07/30 03:42:32;;;;;;;38.33;13.82;;;;;;;-146.25;100.00;52293.19;2086580;28;28173;-75
2023/07/30 03:43:35;;;;;;;33.10;14.18;;;;;;;-146.25;100.00;52268.84;2087178;28;26646;-74
2023/07/30 03:44:39;;;;;;;39.92;13.10;;;;;;;-146.25;100.00;52333.72;2087123;28;29944;-75
2023/07/30 03:45:41;;;;;;;36.50;13.63;;;;;;;-146.25;100.00;52256.69;2087596;28;20843;-75
2023/07/30 03:46:44;;;;;;;38.38;13.38;;;;;;;-146.25;100.00;52315.47;2087312;28;20252;-75
2023/07/30 03:47:46;;;;;;;39.22;12.98;;;;;;;-146.25;100.00;52331.69;2079343;28;20045;-75
2023/07/30 03:48:48;;;;;;;40.85;14.13;;;;;;;-146.25;100.00;52321.56;2087273;28;23797;-75
2023/07/30 03:49:49;;;;;;;34.83;12.98;;;;;;;-146.25;100.00;52313.44;2087621;28;32318;-75
2023/07/30 03:50:53;;;;;;;32.22;11.60;;;;;;;-146.25;100.00;52297.22;2087190;28;20944;-73
2023/07/30 03:51:54;;;;;;;34.90;12.82;;;;;;;-146.25;100.00;52289.13;2086997;28;28092;-75
2023/07/30 03:52:57;;;;;;;33.90;12.77;;;;;;;-146.25;100.00;52274.94;2087170;28;37455;-74
2023/07/30 03:54:00;;;;;;;28.70;12.05;;;;;;;-146.25;100.00;52287.09;2087885;28;20099;-74
2023/07/30 03:55:04;;;;;;;37.00;11.93;;;;;;;-146.25;100.00;52252.63;2087304;28;20046;-74
2023/07/30 03:56:08;;;;;;;33.15;11.70;;;;;;;-146.25;100.00;52293.19;2088201;28;28476;-75
2023/07/30 03:57:09;;;;;;;38.75;12.15;;;;;;;-146.25;100.00;52323.59;2080793;28;20085;-74
2023/07/30 03:58:11;;;;;;;29.35;11.20;;;;;;;-146.25;100.00;52291.16;2080208;28;34703;-74
2023/07/30 03:59:13;;;;;;;30.48;10.70;;;;;;;-146.25;100.00;52315.47;2088709;28;20142;-75
2023/07/30 04:00:15;;;;;;;26.08;11.15;;;;;;;-146.25;100.00;52283.03;2088127;28;31018;-74
2023/07/30 04:01:17;;;;;;;32.20;10.88;;;;;;;-146.25;100.00;52341.84;2087689;28;43787;-75
2023/07/30 04:02:21;;;;;;;29.23;10.88;;;;;;;-146.25;100.00;52303.31;2080170;28;20049;-75
2023/07/30 04:03:23;;;;;;;29.88;10.50;;;;;;;-146.25;100.00;52270.88;2079370;28;34944;-74
2023/07/30 04:04:25;;;;;;;30.15;10.52;;;;;;;-146.25;100.00;52311.44;2088311;28;21195;-74
2023/07/30 04:05:27;;;;;;;30.90;10.65;;;;;;;-146.25;100.00;52315.47;2087982;28;25904;-74
2023/07/30 04:06:28;;;;;;;30.00;10.18;;;;;;;-146.25;100.00;52315.47;2080996;28;20135;-74
2023/07/30 04:07:30;;;;;;;21.52;9.55;;;;;;;-146.25;100.00;52287.09;2071880;28;20046;-75
2023/07/30 04:08:32;;;;;;;36.22;9.05;;;;;;;-146.25;100.00;52311.44;2063377;28;26505;-76
2023/07/30 04:09:34;;;;;;;22.42;9.38;;;;;;;-146.25;100.00;52278.97;2072061;28;27263;-75
2023/07/30 04:10:35;;;;;;;21.77;9.40;;;;;;;-146.25;100.00;52303.31;2072086;28;20062;-73
2023/07/30 04:11:37;;;;;;;24.48;8.38;;;;;;;-146.25;100.00;52315.47;2071522;28;37307;-75
2023/07/30 04:12:39;;;;;;;24.88;8.60;;;;;;;-146.25;100.00;52303.31;2080210;28;29165;-75
2023/07/30 04:13:44;;;;;;;24.02;8.43;;;;;;;-146.25;100.00;52295.19;2080992;28;20053;-74
2023/07/30 04:14:46;;;;;;;26.58;8.50;;;;;;;-146.25;100.00;52285.06;2088372;28;27726;-74
2023/07/30 04:15:48;;;;;;;21.63;7.78;;;;;;;-146.25;100.00;52274.94;2088290;28;21067;-75
2023/07/30 04:16:50;;;;;;;25.50;8.13;;;;;;;-146.25;100.00;52317.50;2080823;28;29218;-74
2023/07/30 04:17:52;;;;;;;22.83;7.68;;;;;;;-146.25;100.00;52293.19;2080696;28;27734;-74
2023/07/30 04:18:56;;;;;;;24.40;7.68;;;;;;;-146.25;100.00;52287.09;2088519;28;20827;-74
2023/07/30 04:19:58;;;;;;;19.02;7.25;;;;;;;-146.25;100.00;52321.56;2088417;28;20114;-75
2023/07/30 04:21:02;;;;;;;22.05;7.50;;;;;;;-146.25;100.00;52287.09;2081672;28;20096;-75
2023/07/30 04:22:03;;;;;;;19.13;6.97;;;;;;;-146.25;100.00;52327.66;2088213;28;31378;-75
2023/07/30 04:23:07;;;;;;;17.25;6.32;;;;;;;-146.25;100.00;52281.00;2088429;28;29354;-75
2023/07/30 04:24:09;;;;;;;18.77;6.40;;;;;;;-146.25;100.00;52317.50;2088323;28;24529;-74
2023/07/30 04:25:11;;;;;;;21.20;6.10;;;;;;;-146.25;100.00;52315.47;2080414;28;20038;-75
2023/07/30 04:26:15;;;;;;;21.00;5.72;;;;;;;-146.25;100.00;52313.44;2080115;28;20077;-75
2023/07/30 04:27:17;;;;;;;17.65;6.10;;;;;;;-146.25;100.00;52297.22;2079699;28;36253;-74
2023/07/30 04:28:21;;;;;;;18.80;5.70;;;;;;;-146.25;100.00;52289.13;2082039;28;23568;-75
2023/07/30 04:29:23;;;;;;;17.75;5.57;;;;;;;-146.25;100.00;52307.38;2079681;28;20039;-75
2023/07/30 04:30:27;;;;;;;18.55;5.50;;;;;;;-146.25;100.00;52319.53;2080396;28;20085;-75
2023/07/30 04:31:29;;;;;;;21.63;5.38;;;;;;;-146.25;100.00;52317.50;2088132;28;27097;-75
2023/07/30 04:32:32;;;;;;;15.00;5.20;;;;;;;-146.25;100.00;52305.34;2081347;28;20112;-75
2023/07/30 04:33:34;;;;;;;19.48;4.78;;;;;;;-146.25;100.00;52331.69;2072183;28;20140;-74
2023/07/30 04:34:37;;;;;;;19.08;5.20;;;;;;;-146.25;100.00;52299.25;2072491;28;20059;-75
2023/07/30 04:35:40;;;;;;;19.45;4.93;;;;;;;-146.25;100.00;52319.53;2088599;28;20041;-75
2023/07/30 04:36:44;;;;;;;18.10;4.70;;;;;;;-146.25;100.00;52297.22;2080103;28;20112;-75
2023/07/30 04:37:46;;;;;;;17.85;5.35;;;;;;;-146.25;100.00;52307.38;2080714;28;20057;-75
2023/07/30 04:38:48;;;;;;;13.43;4.47;;;;;;;-146.25;100.00;52327.66;2088444;28;20056;-75
2023/07/30 04:39:51;;;;;;;14.43;4.20;;;;;;;-146.25;100.00;52333.72;2085652;28;20857;-74